createdAt,value
2023-01-18T00:01:05.296Z,6.72
2023-01-18T00:02:07.576Z,5.35
2023-01-18T00:03:13.759Z,4.63
2023-01-18T00:04:16.201Z,5.85
2023-01-18T00:05:19.636Z,4.85
2023-01-18T00:06:22.134Z,4.50
2023-01-18T00:07:24.372Z,4.70
2023-01-18T00:08:26.631Z,4.78
2023-01-18T00:09:29.390Z,4.57
2023-01-18T00:10:31.645Z,4.32
2023-01-18T00:11:34.045Z,4.00
2023-01-18T00:12:36.286Z,4.47
2023-01-18T00:13:39.212Z,4.45
2023-01-18T00:14:41.758Z,4.20
2023-01-18T00:15:43.985Z,4.85
2023-01-18T00:16:46.304Z,5.20
2023-01-18T00:17:51.812Z,4.15
2023-01-18T00:18:56.521Z,5.20
2023-01-18T00:19:58.921Z,5.03
2023-01-18T00:21:05.706Z,4.80
2023-01-18T00:22:07.934Z,4.68
2023-01-18T00:23:10.200Z,4.90
2023-01-18T00:24:14.994Z,5.40
2023-01-18T00:25:22.586Z,4.63
2023-01-18T00:26:24.914Z,5.40
2023-01-18T00:27:27.180Z,4.95
2023-01-18T00:28:29.672Z,4.40
2023-01-18T00:29:32.172Z,4.47
2023-01-18T00:30:34.542Z,4.35
2023-01-18T00:31:37.690Z,4.40
2023-01-18T00:32:39.987Z,4.00
2023-01-18T00:33:43.970Z,4.00
2023-01-18T00:34:48.184Z,4.70
2023-01-18T00:36:02.192Z,4.70
2023-01-18T00:37:04.472Z,4.05
2023-01-18T00:38:06.765Z,3.67
2023-01-18T00:39:09.079Z,4.68
2023-01-18T00:40:11.473Z,4.25
2023-01-18T00:41:13.751Z,4.30
2023-01-18T00:42:34.511Z,3.42
2023-01-18T00:43:39.693Z,4.43
2023-01-18T00:44:42.099Z,3.97
2023-01-18T00:45:44.385Z,3.97
2023-01-18T00:46:48.705Z,4.05
2023-01-18T00:47:51.055Z,3.95
2023-01-18T00:48:54.849Z,3.50
2023-01-18T00:49:57.075Z,3.72
2023-01-18T00:50:59.409Z,3.20
2023-01-18T00:52:01.716Z,3.78
2023-01-18T00:53:04.012Z,4.45
2023-01-18T00:54:06.265Z,3.28
2023-01-18T00:55:09.167Z,3.65
2023-01-18T00:56:13.833Z,3.47
2023-01-18T00:57:16.145Z,4.05
2023-01-18T00:58:18.469Z,3.15
2023-01-18T00:59:20.691Z,3.45
2023-01-18T01:00:23.957Z,3.35
2023-01-18T01:01:26.319Z,3.60
2023-01-18T01:02:28.614Z,3.58
2023-01-18T01:03:50.980Z,3.63
2023-01-18T01:05:11.719Z,3.65
2023-01-18T01:06:33.592Z,3.45
2023-01-18T01:07:35.891Z,3.60
2023-01-18T01:08:38.141Z,3.53
2023-01-18T01:09:40.498Z,3.75
2023-01-18T01:10:47.284Z,3.90
2023-01-18T01:12:09.259Z,3.72
2023-01-18T01:13:30.758Z,4.10
2023-01-18T01:14:53.652Z,3.70
2023-01-18T01:16:14.583Z,4.15
2023-01-18T01:17:35.429Z,3.75
2023-01-18T01:18:56.270Z,3.53
2023-01-18T01:20:17.259Z,3.60
2023-01-18T01:21:38.284Z,3.33
2023-01-18T01:22:59.777Z,4.32
2023-01-18T01:24:20.831Z,5.13
2023-01-18T01:25:42.160Z,5.03
2023-01-18T01:26:44.430Z,4.22
2023-01-18T01:27:46.681Z,4.00
2023-01-18T01:28:53.309Z,3.97
2023-01-18T01:29:55.620Z,3.90
2023-01-18T01:31:00.508Z,3.47
2023-01-18T01:32:03.591Z,3.22
2023-01-18T01:33:05.856Z,3.90
2023-01-18T01:34:08.149Z,3.50
2023-01-18T01:35:11.730Z,4.47
2023-01-18T01:36:20.383Z,3.60
2023-01-18T01:37:22.719Z,3.50
2023-01-18T01:38:25.682Z,4.10
2023-01-18T01:39:28.009Z,3.42
2023-01-18T01:40:30.479Z,4.05
2023-01-18T01:41:34.532Z,4.13
2023-01-18T01:42:36.801Z,3.72
2023-01-18T01:43:47.916Z,4.00
2023-01-18T01:44:52.209Z,3.72
2023-01-18T01:45:54.628Z,4.00
2023-01-18T01:47:04.668Z,3.92
2023-01-18T01:48:09.877Z,3.97
2023-01-18T01:49:20.526Z,3.70
2023-01-18T01:50:34.575Z,4.25
2023-01-18T01:51:41.826Z,3.95
2023-01-18T01:52:45.950Z,4.50
2023-01-18T01:53:50.242Z,3.60
2023-01-18T01:55:05.804Z,4.18
2023-01-18T01:56:09.358Z,3.75
2023-01-18T01:57:37.981Z,4.63
2023-01-18T01:58:41.757Z,3.25
2023-01-18T02:00:08.345Z,4.22
2023-01-18T02:01:17.048Z,4.70
2023-01-18T02:02:19.610Z,3.90
2023-01-18T02:03:24.333Z,4.35
2023-01-18T02:04:26.825Z,4.82
2023-01-18T02:05:30.794Z,4.70
2023-01-18T02:06:37.074Z,4.00
2023-01-18T02:07:39.676Z,4.30
2023-01-18T02:08:44.598Z,3.70
2023-01-18T02:09:47.061Z,4.65
2023-01-18T02:10:50.535Z,4.20
2023-01-18T02:11:54.961Z,4.80
2023-01-18T02:12:59.939Z,4.20
2023-01-18T02:14:12.684Z,4.28
2023-01-18T02:15:15.121Z,3.92
2023-01-18T02:17:00.559Z,4.20
2023-01-18T02:18:34.479Z,3.90
2023-01-18T02:19:48.059Z,4.13
2023-01-18T02:21:17.421Z,4.95
2023-01-18T02:22:22.473Z,3.97
2023-01-18T02:23:30.688Z,4.25
2023-01-18T02:25:03.461Z,3.70
2023-01-18T02:26:29.631Z,4.05
2023-01-18T02:27:43.816Z,3.63
2023-01-18T02:28:59.177Z,4.00
2023-01-18T02:30:14.863Z,4.85
2023-01-18T02:31:25.964Z,4.55
2023-01-18T02:32:31.159Z,4.22
2023-01-18T02:33:46.796Z,4.80
2023-01-18T02:35:04.684Z,4.90
2023-01-18T02:36:07.142Z,4.70
2023-01-18T02:37:44.029Z,5.00
2023-01-18T02:38:47.564Z,4.15
2023-01-18T02:39:52.968Z,4.43
2023-01-18T02:41:17.994Z,4.68
2023-01-18T02:42:41.049Z,4.53
2023-01-18T02:44:04.032Z,4.68
2023-01-18T02:45:40.664Z,4.10
2023-01-18T02:46:44.783Z,4.25
2023-01-18T02:47:48.243Z,4.00
2023-01-18T02:48:50.880Z,4.70
2023-01-18T02:49:53.196Z,5.82
2023-01-18T02:50:55.481Z,5.03
2023-01-18T02:52:05.699Z,3.90
2023-01-18T02:53:12.310Z,4.47
2023-01-18T02:54:24.414Z,4.00
2023-01-18T02:55:26.894Z,4.00
2023-01-18T02:56:40.303Z,4.20
2023-01-18T02:57:44.077Z,4.65
2023-01-18T02:58:59.911Z,4.15
2023-01-18T03:00:04.189Z,6.10
2023-01-18T03:01:34.010Z,4.88
2023-01-18T03:02:38.327Z,5.28
2023-01-18T03:03:46.322Z,4.43
2023-01-18T03:04:55.873Z,3.63
2023-01-18T03:06:01.735Z,4.93
2023-01-18T03:07:19.384Z,4.60
2023-01-18T03:08:32.515Z,3.95
2023-01-18T03:09:34.812Z,4.20
2023-01-18T03:10:57.234Z,4.15
2023-01-18T03:12:11.991Z,4.45
2023-01-18T03:13:23.095Z,4.63
2023-01-18T03:14:41.056Z,5.30
2023-01-18T03:15:52.440Z,4.70
2023-01-18T03:17:07.696Z,5.55
2023-01-18T03:18:19.171Z,5.20
2023-01-18T03:19:48.896Z,4.72
2023-01-18T03:20:56.211Z,5.60
2023-01-18T03:22:00.096Z,5.65
2023-01-18T03:23:29.253Z,5.57
2023-01-18T03:24:41.253Z,5.00
2023-01-18T03:25:46.932Z,5.10
2023-01-18T03:26:53.689Z,6.45
2023-01-18T03:28:17.655Z,6.20
2023-01-18T03:29:40.786Z,5.22
2023-01-18T03:31:03.060Z,6.10
2023-01-18T03:32:34.081Z,5.90
2023-01-18T03:33:47.431Z,5.90
2023-01-18T03:34:54.780Z,6.40
2023-01-18T03:35:59.516Z,6.05
2023-01-18T03:37:09.955Z,5.95
2023-01-18T03:38:12.658Z,5.30
2023-01-18T03:39:40.365Z,5.78
2023-01-18T03:40:42.811Z,4.78
2023-01-18T03:41:50.718Z,5.53
2023-01-18T03:43:16.420Z,5.63
2023-01-18T03:44:38.460Z,5.50
2023-01-18T03:45:45.824Z,5.60
2023-01-18T03:46:48.226Z,4.80
2023-01-18T03:47:51.090Z,5.47
2023-01-18T03:48:53.455Z,5.90
2023-01-18T03:49:55.975Z,5.28
2023-01-18T03:51:07.060Z,5.50
2023-01-18T03:52:18.107Z,4.90
2023-01-18T03:53:32.821Z,4.57
2023-01-18T03:54:38.355Z,4.50
2023-01-18T03:55:48.944Z,4.22
2023-01-18T03:56:57.727Z,4.20
2023-01-18T03:58:10.749Z,4.75
2023-01-18T03:59:14.104Z,4.97
2023-01-18T04:00:17.316Z,4.47
2023-01-18T04:01:20.368Z,4.30
2023-01-18T04:02:24.039Z,4.60
2023-01-18T04:03:26.409Z,4.93
2023-01-18T04:04:28.657Z,4.07
2023-01-18T04:05:31.675Z,3.80
2023-01-18T04:06:34.269Z,4.55
2023-01-18T04:07:36.533Z,4.22
2023-01-18T04:08:38.769Z,4.28
2023-01-18T04:09:41.038Z,4.20
2023-01-18T04:10:43.384Z,4.00
2023-01-18T04:11:45.709Z,4.63
2023-01-18T04:12:48.102Z,3.58
2023-01-18T04:13:50.447Z,5.07
2023-01-18T04:14:53.065Z,4.85
2023-01-18T04:15:55.472Z,5.07
2023-01-18T04:16:57.782Z,4.35
2023-01-18T04:18:00.108Z,4.95
2023-01-18T04:19:02.587Z,5.15
2023-01-18T04:20:05.722Z,5.32
2023-01-18T04:21:08.054Z,5.88
2023-01-18T04:22:10.818Z,5.00
2023-01-18T04:23:13.191Z,5.20
2023-01-18T04:24:17.344Z,5.97
2023-01-18T04:25:20.016Z,5.00
2023-01-18T04:26:22.290Z,5.07
2023-01-18T04:27:27.469Z,5.10
2023-01-18T04:28:29.832Z,6.03
2023-01-18T04:29:32.120Z,5.55
2023-01-18T04:30:34.338Z,6.40
2023-01-18T04:31:36.800Z,5.80
2023-01-18T04:32:39.956Z,5.80
2023-01-18T04:33:42.197Z,6.13
2023-01-18T04:34:44.587Z,5.40
2023-01-18T04:35:50.537Z,6.32
2023-01-18T04:36:53.655Z,5.20
2023-01-18T04:37:56.015Z,5.95
2023-01-18T04:38:58.345Z,6.30
2023-01-18T04:40:01.572Z,5.75
2023-01-18T04:41:05.041Z,5.50
2023-01-18T04:42:07.329Z,6.00
2023-01-18T04:43:09.786Z,6.53
2023-01-18T04:44:12.540Z,5.93
2023-01-18T04:45:14.926Z,6.70
2023-01-18T04:46:17.349Z,6.85
2023-01-18T04:47:19.822Z,5.80
2023-01-18T04:48:23.001Z,6.30
2023-01-18T04:49:25.553Z,6.03
2023-01-18T04:50:27.907Z,5.50
2023-01-18T04:51:31.453Z,6.15
2023-01-18T04:52:33.717Z,5.57
2023-01-18T04:53:35.998Z,5.82
2023-01-18T04:54:38.310Z,6.13
2023-01-18T04:55:40.749Z,5.53
2023-01-18T04:56:43.160Z,5.55
2023-01-18T04:57:45.694Z,5.72
2023-01-18T04:58:48.022Z,5.28
2023-01-18T04:59:50.427Z,6.40
2023-01-18T05:00:52.784Z,7.53
2023-01-18T05:01:55.229Z,13.25
2023-01-18T05:02:57.893Z,14.15
2023-01-18T05:04:01.688Z,17.83
2023-01-18T05:05:05.076Z,17.83
2023-01-18T05:06:10.003Z,15.40
2023-01-18T05:07:12.639Z,13.93
2023-01-18T05:08:14.872Z,13.15
2023-01-18T05:09:17.305Z,12.20
2023-01-18T05:10:19.642Z,12.38
2023-01-18T05:11:23.312Z,12.30
2023-01-18T05:12:25.622Z,13.63
2023-01-18T05:13:27.886Z,13.88
2023-01-18T05:14:30.170Z,15.00
2023-01-18T05:15:34.903Z,18.60
2023-01-18T05:16:37.273Z,18.02
2023-01-18T05:17:39.678Z,19.70
2023-01-18T05:18:42.410Z,17.23
2023-01-18T05:19:46.801Z,17.13
2023-01-18T05:20:49.059Z,15.52
2023-01-18T05:21:51.316Z,15.50
2023-01-18T05:22:53.570Z,16.98
2023-01-18T05:23:55.831Z,14.55
2023-01-18T05:24:58.352Z,14.02
2023-01-18T05:26:00.847Z,13.07
2023-01-18T05:27:03.197Z,11.70
2023-01-18T05:28:07.398Z,12.32
2023-01-18T05:29:10.152Z,10.30
2023-01-18T05:30:12.854Z,11.32
2023-01-18T05:31:16.315Z,11.10
2023-01-18T05:32:19.052Z,10.90
2023-01-18T05:33:22.521Z,9.50
2023-01-18T05:34:25.286Z,9.88
2023-01-18T05:35:27.582Z,10.50
2023-01-18T05:36:29.853Z,10.70
2023-01-18T05:37:32.122Z,11.13
2023-01-18T05:38:34.558Z,12.35
2023-01-18T05:39:36.878Z,11.02
2023-01-18T05:40:39.161Z,10.82
2023-01-18T05:41:41.447Z,10.68
2023-01-18T05:42:44.615Z,9.73
2023-01-18T05:43:47.036Z,10.38
2023-01-18T05:44:49.416Z,8.98
2023-01-18T05:45:52.129Z,8.98
2023-01-18T05:46:54.476Z,14.27
2023-01-18T05:47:56.791Z,18.15
2023-01-18T05:48:59.458Z,20.17
2023-01-18T05:50:01.708Z,21.40
2023-01-18T05:51:09.286Z,19.10
2023-01-18T05:52:11.693Z,17.35
2023-01-18T05:53:16.214Z,16.67
2023-01-18T05:54:18.550Z,13.43
2023-01-18T05:55:20.817Z,12.30
2023-01-18T05:56:23.671Z,13.40
2023-01-18T05:57:26.133Z,10.45
2023-01-18T05:58:28.635Z,10.15
2023-01-18T05:59:30.916Z,10.27
2023-01-18T06:00:34.329Z,10.02
2023-01-18T06:01:36.883Z,9.98
2023-01-18T06:02:39.136Z,10.25
2023-01-18T06:03:41.471Z,11.35
2023-01-18T06:04:44.431Z,10.20
2023-01-18T06:05:47.868Z,9.00
2023-01-18T06:06:50.148Z,9.70
2023-01-18T06:07:53.027Z,8.98
2023-01-18T06:08:55.434Z,7.88
2023-01-18T06:09:57.842Z,8.10
2023-01-18T06:11:00.731Z,7.68
2023-01-18T06:12:03.594Z,6.90
2023-01-18T06:13:06.842Z,7.55
2023-01-18T06:14:09.158Z,7.38
2023-01-18T06:15:12.296Z,7.80
2023-01-18T06:16:14.670Z,7.88
2023-01-18T06:17:17.420Z,7.45
2023-01-18T06:18:19.681Z,7.05
2023-01-18T06:19:22.056Z,7.45
2023-01-18T06:20:25.123Z,7.65
2023-01-18T06:21:27.416Z,6.65
2023-01-18T06:22:29.770Z,7.43
2023-01-18T06:23:32.313Z,7.80
2023-01-18T06:24:34.619Z,8.60
2023-01-18T06:25:36.904Z,7.90
2023-01-18T06:26:39.372Z,8.77
2023-01-18T06:27:41.766Z,8.18
2023-01-18T06:28:44.013Z,8.13
2023-01-18T06:29:46.254Z,7.47
2023-01-18T06:30:51.374Z,8.75
2023-01-18T06:31:53.862Z,8.35
2023-01-18T06:32:56.471Z,7.53
2023-01-18T06:33:58.850Z,7.28
2023-01-18T06:35:01.159Z,7.00
2023-01-18T06:36:03.708Z,7.55
2023-01-18T06:37:06.021Z,8.20
2023-01-18T06:38:08.272Z,7.70
2023-01-18T06:39:10.721Z,7.55
2023-01-18T06:40:13.809Z,6.32
2023-01-18T06:41:16.074Z,6.90
2023-01-18T06:42:18.378Z,6.30
2023-01-18T06:43:20.723Z,6.30
2023-01-18T06:44:22.998Z,6.32
2023-01-18T06:45:25.970Z,7.53
2023-01-18T06:46:28.709Z,7.53
2023-01-18T06:47:31.077Z,8.07
2023-01-18T06:48:33.761Z,8.13
2023-01-18T06:49:36.105Z,7.90
2023-01-18T06:50:38.371Z,7.80
2023-01-18T06:51:41.315Z,8.20
2023-01-18T06:52:45.011Z,7.10
2023-01-18T06:53:47.630Z,7.45
2023-01-18T06:54:49.909Z,6.78
2023-01-18T06:56:01.965Z,7.43
2023-01-18T06:57:04.642Z,7.72
2023-01-18T06:58:06.971Z,6.60
2023-01-18T06:59:09.386Z,6.93
2023-01-18T07:00:12.646Z,6.45
2023-01-18T07:01:15.058Z,6.45
2023-01-18T07:02:17.405Z,6.60
2023-01-18T07:03:19.663Z,6.43
2023-01-18T07:04:22.264Z,6.65
2023-01-18T07:05:24.540Z,6.82
2023-01-18T07:06:26.836Z,6.10
2023-01-18T07:07:29.624Z,6.30
2023-01-18T07:08:32.276Z,6.35
2023-01-18T07:09:34.816Z,7.18
2023-01-18T07:10:37.150Z,6.95
2023-01-18T07:11:43.333Z,6.43
2023-01-18T07:12:48.753Z,6.40
2023-01-18T07:13:51.911Z,7.00
2023-01-18T07:14:54.192Z,6.95
2023-01-18T07:16:01.064Z,5.97
2023-01-18T07:17:04.783Z,6.68
2023-01-18T07:18:07.287Z,6.25
2023-01-18T07:19:09.742Z,5.93
2023-01-18T07:20:15.690Z,7.15
2023-01-18T07:21:19.507Z,7.60
2023-01-18T07:22:21.924Z,7.50
2023-01-18T07:23:24.504Z,7.53
2023-01-18T07:24:26.969Z,6.75
2023-01-18T07:25:32.039Z,8.00
2023-01-18T07:26:34.342Z,7.57
2023-01-18T07:27:36.607Z,7.50
2023-01-18T07:28:38.956Z,8.45
2023-01-18T07:29:41.351Z,8.93
2023-01-18T07:30:44.073Z,9.48
2023-01-18T07:31:46.560Z,9.05
2023-01-18T07:32:50.985Z,9.13
2023-01-18T07:33:53.495Z,8.38
2023-01-18T07:34:57.497Z,10.38
2023-01-18T07:36:01.646Z,9.65
2023-01-18T07:37:03.938Z,9.00
2023-01-18T07:38:06.445Z,8.90
2023-01-18T07:39:10.234Z,7.72
2023-01-18T07:40:14.417Z,8.88
2023-01-18T07:41:17.720Z,8.40
2023-01-18T07:42:20.560Z,8.57
2023-01-18T07:43:24.211Z,10.18
2023-01-18T07:44:26.571Z,7.03
2023-01-18T07:45:29.121Z,9.70
2023-01-18T07:46:31.913Z,8.13
2023-01-18T07:47:35.470Z,8.32
2023-01-18T07:48:39.057Z,8.95
2023-01-18T07:49:41.550Z,7.53
2023-01-18T07:50:43.847Z,8.45
2023-01-18T07:51:46.108Z,7.90
2023-01-18T07:52:48.808Z,6.70
2023-01-18T07:53:55.134Z,7.63
2023-01-18T07:54:57.405Z,8.30
2023-01-18T07:56:05.874Z,7.90
2023-01-18T07:57:08.329Z,8.15
2023-01-18T07:58:11.247Z,8.07
2023-01-18T07:59:13.552Z,7.88
2023-01-18T08:00:17.356Z,10.20
2023-01-18T08:01:22.100Z,7.47
2023-01-18T08:02:24.459Z,8.13
2023-01-18T08:03:26.758Z,7.47
2023-01-18T08:04:28.999Z,7.35
2023-01-18T08:05:34.712Z,7.80
2023-01-18T08:06:37.401Z,7.93
2023-01-18T08:07:39.683Z,8.02
2023-01-18T08:08:42.130Z,7.80
2023-01-18T08:09:44.598Z,8.85
2023-01-18T08:10:46.963Z,7.57
2023-01-18T08:11:49.231Z,7.63
2023-01-18T08:12:51.862Z,8.07
2023-01-18T08:13:54.287Z,8.00
2023-01-18T08:14:56.831Z,7.20
2023-01-18T08:16:00.804Z,7.63
2023-01-18T08:17:03.689Z,7.60
2023-01-18T08:18:07.038Z,6.97
2023-01-18T08:19:09.385Z,6.50
2023-01-18T08:20:12.448Z,6.25
2023-01-18T08:21:14.789Z,6.38
2023-01-18T08:22:17.045Z,8.70
2023-01-18T08:23:19.384Z,8.02
2023-01-18T08:24:21.837Z,8.52
2023-01-18T08:25:29.634Z,7.05
2023-01-18T08:26:31.882Z,7.35
2023-01-18T08:27:34.155Z,8.05
2023-01-18T08:28:36.940Z,7.30
2023-01-18T08:29:39.230Z,7.50
2023-01-18T08:30:48.407Z,6.35
2023-01-18T08:31:54.340Z,7.15
2023-01-18T08:32:58.427Z,7.82
2023-01-18T08:34:02.593Z,10.55
2023-01-18T08:35:05.234Z,9.18
2023-01-18T08:36:11.435Z,30.60
2023-01-18T08:37:13.717Z,26.00
2023-01-18T08:38:16.695Z,41.33
2023-01-18T08:39:18.958Z,36.40
2023-01-18T08:40:23.526Z,31.77
2023-01-18T08:41:30.930Z,29.80
2023-01-18T08:42:33.258Z,29.38
2023-01-18T08:43:35.728Z,27.60
2023-01-18T08:44:37.977Z,27.00
2023-01-18T08:45:40.257Z,27.15
2023-01-18T08:46:42.560Z,25.30
2023-01-18T08:50:47.302Z,24.85
2023-01-18T08:51:49.722Z,24.73
2023-01-18T08:52:55.142Z,24.77
2023-01-18T08:53:58.768Z,22.45
2023-01-18T08:55:02.177Z,18.95
2023-01-18T08:56:06.638Z,18.77
2023-01-18T08:57:09.408Z,16.42
2023-01-18T08:58:12.734Z,16.90
2023-01-18T08:59:15.241Z,15.23
2023-01-18T09:00:18.058Z,13.85
2023-01-18T09:01:23.192Z,14.35
2023-01-18T09:02:26.155Z,11.90
2023-01-18T09:03:28.523Z,11.85
2023-01-18T09:04:30.821Z,11.57
2023-01-18T09:05:35.899Z,10.40
2023-01-18T09:06:38.231Z,9.98
2023-01-18T09:07:40.822Z,8.75
2023-01-18T09:14:39.708Z,7.32
2023-01-18T09:15:41.358Z,6.55
2023-01-18T09:16:42.933Z,7.35
2023-01-18T09:17:45.466Z,7.45
2023-01-18T09:18:49.042Z,6.72
2023-01-18T09:19:50.631Z,7.47
2023-01-18T09:20:53.611Z,8.20
2023-01-18T09:21:55.226Z,7.43
2023-01-18T09:22:57.136Z,9.40
2023-01-18T09:23:59.014Z,9.88
2023-01-18T09:25:00.644Z,9.10
2023-01-18T09:26:09.627Z,9.50
2023-01-18T09:27:11.175Z,8.25
2023-01-18T09:28:12.899Z,9.00
2023-01-18T09:29:14.551Z,9.25
2023-01-18T09:30:16.327Z,8.35
2023-01-18T09:31:20.148Z,7.32
2023-01-18T09:32:22.113Z,7.50
2023-01-18T09:35:56.548Z,7.38
2023-01-18T09:36:58.114Z,7.50
2023-01-18T09:37:59.668Z,7.47
2023-01-18T09:39:01.264Z,7.57
2023-01-18T09:40:03.484Z,7.32
2023-01-18T09:41:27.560Z,6.93
2023-01-18T09:42:37.111Z,6.50
2023-01-18T09:43:47.348Z,5.93
2023-01-18T09:44:56.076Z,6.18
2023-01-18T09:45:59.131Z,6.22
2023-01-18T09:47:23.844Z,6.72
2023-01-18T09:48:30.453Z,6.22
2023-01-18T09:49:40.602Z,7.47
2023-01-18T09:50:43.251Z,6.97
2023-01-18T09:51:51.130Z,7.40
2023-01-18T09:57:13.483Z,7.09
2023-01-18T09:58:41.620Z,10.05
2023-01-18T09:59:54.576Z,7.32
2023-01-18T10:01:21.939Z,7.32
2023-01-18T10:02:40.999Z,8.07
2023-01-18T10:03:57.951Z,6.93
2023-01-18T10:05:05.654Z,6.95
2023-01-18T10:06:15.611Z,7.03
2023-01-18T10:07:19.539Z,7.35
2023-01-18T10:08:25.814Z,6.30
2023-01-18T10:09:43.513Z,6.13
2023-01-18T10:11:09.625Z,6.43
2023-01-18T10:12:30.069Z,6.28
2023-01-18T10:13:58.936Z,6.50
2023-01-18T10:15:02.187Z,7.03
2023-01-18T10:16:15.255Z,6.50
2023-01-18T10:17:24.036Z,7.93
2023-01-18T10:18:26.413Z,5.90
2023-01-18T10:19:30.505Z,6.07
2023-01-18T10:20:33.982Z,6.10
2023-01-18T10:21:42.041Z,6.70
2023-01-18T10:23:08.475Z,5.90
2023-01-18T10:24:16.742Z,6.85
2023-01-18T10:25:43.091Z,6.30
2023-01-18T10:26:48.984Z,6.30
2023-01-18T10:28:18.196Z,7.05
2023-01-18T10:29:42.645Z,8.02
2023-01-18T10:31:17.105Z,9.18
2023-01-18T10:32:23.100Z,9.05
2023-01-18T10:33:28.937Z,11.27
2023-01-18T10:34:34.565Z,10.77
2023-01-18T10:35:43.350Z,10.98
2023-01-18T10:36:53.150Z,9.20
2023-01-18T10:38:00.406Z,8.70
2023-01-18T10:39:07.163Z,8.30
2023-01-18T10:40:12.602Z,8.77
2023-01-18T10:41:27.723Z,8.90
2023-01-18T10:42:41.267Z,7.80
2023-01-18T10:43:44.617Z,7.50
2023-01-18T10:44:47.826Z,7.50
2023-01-18T10:45:51.086Z,7.30
2023-01-18T10:46:57.959Z,7.93
2023-01-18T10:48:14.455Z,7.30
2023-01-18T10:49:42.549Z,5.82
2023-01-18T10:50:52.326Z,6.50
2023-01-18T10:51:55.572Z,6.88
2023-01-18T10:52:58.192Z,7.35
2023-01-18T10:54:22.124Z,5.65
2023-01-18T10:55:24.364Z,6.30
2023-01-18T10:56:28.401Z,5.82
2023-01-18T10:57:35.411Z,6.20
2023-01-18T10:58:52.787Z,6.25
2023-01-18T10:59:56.524Z,6.65
2023-01-18T11:01:00.722Z,7.35
2023-01-18T11:02:05.110Z,7.05
2023-01-18T11:03:14.921Z,7.45
2023-01-18T11:04:22.061Z,7.28
2023-01-18T11:05:31.389Z,6.50
2023-01-18T11:06:51.643Z,7.15
2023-01-18T11:08:21.561Z,8.20
2023-01-18T11:09:46.451Z,6.68
2023-01-18T11:11:01.084Z,6.20
2023-01-18T11:12:41.508Z,6.38
2023-01-18T11:13:45.346Z,6.55
2023-01-18T11:14:47.849Z,6.55
2023-01-18T11:16:05.181Z,5.55
2023-01-18T11:17:12.651Z,6.13
2023-01-18T11:18:17.438Z,5.82
2023-01-18T11:19:19.989Z,5.97
2023-01-18T11:20:29.773Z,5.40
2023-01-18T11:21:51.987Z,5.80
2023-01-18T11:23:01.722Z,5.45
2023-01-18T11:24:12.339Z,6.43
2023-01-18T11:25:17.895Z,6.60
2023-01-18T11:26:23.415Z,6.82
2023-01-18T11:27:25.968Z,6.57
2023-01-18T11:28:39.384Z,5.80
2023-01-18T11:29:45.031Z,6.72
2023-01-18T11:31:15.301Z,7.10
2023-01-18T11:32:26.943Z,5.93
2023-01-18T11:33:30.951Z,6.40
2023-01-18T11:34:37.213Z,7.00
2023-01-18T11:35:39.643Z,6.57
2023-01-18T11:36:44.216Z,5.97
2023-01-18T11:37:46.632Z,5.65
2023-01-18T11:38:48.947Z,6.45
2023-01-18T11:39:51.206Z,5.70
2023-01-18T11:41:25.472Z,5.90
2023-01-18T11:42:32.830Z,4.93
2023-01-18T11:43:37.967Z,5.57
2023-01-18T11:44:49.079Z,6.30
2023-01-18T11:46:00.246Z,5.30
2023-01-18T11:47:09.242Z,5.70
2023-01-18T11:48:41.892Z,5.45
2023-01-18T11:50:21.575Z,5.10
2023-01-18T11:51:36.220Z,5.60
2023-01-18T11:52:53.262Z,5.25
2023-01-18T11:54:07.028Z,5.20
2023-01-18T11:55:25.307Z,5.03
2023-01-18T11:56:30.624Z,5.80
2023-01-18T11:57:32.929Z,6.63
2023-01-18T11:58:36.468Z,6.18
2023-01-18T11:59:47.130Z,6.10
2023-01-18T12:01:07.570Z,5.97
2023-01-18T12:02:48.148Z,4.90
2023-01-18T12:04:04.883Z,6.18
2023-01-18T12:05:25.841Z,4.72
2023-01-18T12:06:51.204Z,4.30
2023-01-18T12:08:02.291Z,4.60
2023-01-18T12:09:24.645Z,4.68
2023-01-18T12:10:41.154Z,6.03
2023-01-18T12:12:19.387Z,4.50
2023-01-18T12:13:30.902Z,4.97
2023-01-18T12:14:53.225Z,4.50
2023-01-18T12:15:58.239Z,4.38
2023-01-18T12:17:13.663Z,4.95
2023-01-18T12:18:45.787Z,4.95
2023-01-18T12:20:06.498Z,5.55
2023-01-18T12:21:24.245Z,6.00
2023-01-18T12:22:54.294Z,7.20
2023-01-18T12:24:50.506Z,6.10
2023-01-18T12:26:29.829Z,5.70
2023-01-18T12:27:44.172Z,5.60
2023-01-18T12:29:01.794Z,5.32
2023-01-18T12:30:38.508Z,5.32
2023-01-18T12:32:08.286Z,5.40
2023-01-18T12:33:13.949Z,5.10
2023-01-18T12:34:22.246Z,5.50
2023-01-18T12:35:48.626Z,4.65
2023-01-18T12:37:13.443Z,4.93
2023-01-18T12:38:23.272Z,5.28
2023-01-18T12:39:35.354Z,4.95
2023-01-18T12:40:56.459Z,5.35
2023-01-18T12:42:04.472Z,5.13
2023-01-18T12:43:29.684Z,4.80
2023-01-18T12:44:54.117Z,4.82
2023-01-18T12:46:10.067Z,5.85
2023-01-18T12:47:20.866Z,5.13
2023-01-18T12:48:41.202Z,5.22
2023-01-18T12:49:51.011Z,5.07
2023-01-18T12:50:56.203Z,5.75
2023-01-18T12:52:17.778Z,6.13
2023-01-18T12:53:28.166Z,5.72
2023-01-18T12:54:32.187Z,6.85
2023-01-18T12:55:36.282Z,5.93
2023-01-18T12:56:42.944Z,5.95
2023-01-18T12:57:46.644Z,6.55
2023-01-18T12:58:56.431Z,5.28
2023-01-18T13:00:06.123Z,5.78
2023-01-18T13:01:14.414Z,6.38
2023-01-18T13:02:26.934Z,5.60
2023-01-18T13:03:35.351Z,7.38
2023-01-18T13:04:44.936Z,6.68
2023-01-18T13:06:02.383Z,5.47
2023-01-18T13:07:10.316Z,6.47
2023-01-18T13:08:21.342Z,6.78
2023-01-18T13:09:33.171Z,7.57
2023-01-18T13:10:36.383Z,6.45
2023-01-18T13:11:42.319Z,7.22
2023-01-18T13:12:44.973Z,5.88
2023-01-18T13:13:51.809Z,5.95
2023-01-18T13:15:15.393Z,6.93
2023-01-18T13:16:56.200Z,6.50
2023-01-18T13:18:35.259Z,7.13
2023-01-18T13:19:54.922Z,6.32
2023-01-18T13:21:18.208Z,7.03
2023-01-18T13:22:41.863Z,8.55
2023-01-18T13:24:36.596Z,7.57
2023-01-18T13:26:00.791Z,8.50
2023-01-18T13:27:08.312Z,10.05
2023-01-18T13:28:19.290Z,8.50
2023-01-18T13:29:28.549Z,8.80
2023-01-18T13:30:33.483Z,9.05
2023-01-18T13:31:38.822Z,8.18
2023-01-18T13:32:43.706Z,9.77
2023-01-18T13:33:47.768Z,9.63
2023-01-18T13:35:21.288Z,8.30
2023-01-18T13:36:24.975Z,7.05
2023-01-18T13:37:45.982Z,6.32
2023-01-18T13:38:56.151Z,6.25
2023-01-18T13:39:58.573Z,6.75
2023-01-18T13:41:04.440Z,7.70
2023-01-18T13:42:09.945Z,8.77
2023-01-18T13:43:36.497Z,9.77
2023-01-18T13:44:44.480Z,10.60
2023-01-18T13:46:08.195Z,10.38
2023-01-18T13:47:39.400Z,11.13
2023-01-18T13:48:46.805Z,10.27
2023-01-18T13:49:49.537Z,11.73
2023-01-18T13:50:52.874Z,11.55
2023-01-18T13:51:57.333Z,10.40
2023-01-18T13:53:14.673Z,9.60
2023-01-18T13:54:38.764Z,10.80
2023-01-18T13:55:46.660Z,11.05
2023-01-18T13:57:01.213Z,9.68
2023-01-18T13:58:03.557Z,9.93
2023-01-18T13:59:21.263Z,9.80
2023-01-18T14:00:27.387Z,9.70
2023-01-18T14:01:36.412Z,9.65
2023-01-18T14:02:42.455Z,11.23
2023-01-18T14:03:49.307Z,9.45
2023-01-18T14:05:01.734Z,10.90
2023-01-18T14:06:09.115Z,8.48
2023-01-18T14:07:20.773Z,9.75
2023-01-18T14:08:32.600Z,27.70
2023-01-18T14:09:36.928Z,35.38
2023-01-18T14:10:48.528Z,40.65
2023-01-18T14:11:58.437Z,39.00
2023-01-18T14:13:04.294Z,30.20
2023-01-18T14:14:29.386Z,25.92
2023-01-18T14:15:39.841Z,22.90
2023-01-18T14:17:12.075Z,22.63
2023-01-18T14:18:18.120Z,20.38
2023-01-18T14:19:22.228Z,19.27
2023-01-18T14:20:46.250Z,18.75
2023-01-18T14:22:33.072Z,20.08
2023-01-18T14:23:58.903Z,17.48
2023-01-18T14:25:35.902Z,14.77
2023-01-18T14:26:40.277Z,13.85
2023-01-18T14:27:52.239Z,13.75
2023-01-18T14:28:59.390Z,12.63
2023-01-18T14:30:30.610Z,12.82
2023-01-18T14:31:45.461Z,18.65
2023-01-18T14:33:00.726Z,24.23
2023-01-18T14:34:25.820Z,21.58
2023-01-18T14:35:28.191Z,21.85
2023-01-18T14:36:30.434Z,18.40
2023-01-18T14:37:34.774Z,17.27
2023-01-18T14:38:37.038Z,16.42
2023-01-18T14:39:39.275Z,16.83
2023-01-18T14:40:50.220Z,16.98
2023-01-18T14:41:56.657Z,16.23
2023-01-18T14:43:04.754Z,15.20
2023-01-18T14:44:15.286Z,14.85
2023-01-18T14:45:22.093Z,15.13
2023-01-18T14:46:26.936Z,14.15
2023-01-18T14:47:32.214Z,15.30
2023-01-18T14:48:42.456Z,13.15
2023-01-18T14:49:45.641Z,13.38
2023-01-18T14:50:52.094Z,12.00
2023-01-18T14:51:54.730Z,10.82
2023-01-18T14:52:57.373Z,11.25
2023-01-18T14:54:02.158Z,8.90
2023-01-18T14:55:05.720Z,8.27
2023-01-18T14:56:30.299Z,9.18
2023-01-18T14:57:32.547Z,8.13
2023-01-18T14:58:59.649Z,8.18
2023-01-18T15:00:16.508Z,7.47
2023-01-18T15:01:37.953Z,7.75
2023-01-18T15:02:40.390Z,7.50
2023-01-18T15:03:42.664Z,7.70
2023-01-18T15:04:46.623Z,6.10
2023-01-18T15:06:20.746Z,6.50
2023-01-18T15:07:28.979Z,6.40
2023-01-18T15:08:34.599Z,6.80
2023-01-18T15:09:39.445Z,7.03
2023-01-18T15:10:44.155Z,5.95
2023-01-18T15:11:47.817Z,5.45
2023-01-18T15:12:54.267Z,5.38
2023-01-18T15:13:58.182Z,5.00
2023-01-18T15:15:09.549Z,5.55
2023-01-18T15:16:11.878Z,5.07
2023-01-18T15:17:22.153Z,5.35